sensor_id;sensor_type;location;lat;lon;timestamp;P1;durP1;ratioP1;P2;durP2;ratioP2
63008;SDS011;49099;28.428;-16.488;2023-01-10T00:01:43;9.43;;;1.88;;
63008;SDS011;49099;28.428;-16.488;2023-01-10T00:04:10;7.40;;;2.05;;
63008;SDS011;49099;28.428;-16.488;2023-01-10T00:06:37;9.38;;;2.17;;
63008;SDS011;49099;28.428;-16.488;2023-01-10T00:09:05;7.57;;;1.80;;
63008;SDS011;49099;28.428;-16.488;2023-01-10T00:11:32;6.57;;;1.70;;
63008;SDS011;49099;28.428;-16.488;2023-01-10T00:14:18;9.63;;;1.95;;
63008;SDS011;49099;28.428;-16.488;2023-01-10T00:16:45;6.28;;;1.45;;
63008;SDS011;49099;28.428;-16.488;2023-01-10T00:19:12;6.70;;;1.63;;
63008;SDS011;49099;28.428;-16.488;2023-01-10T00:21:39;5.75;;;1.88;;
63008;SDS011;49099;28.428;-16.488;2023-01-10T00:24:07;6.45;;;1.70;;
63008;SDS011;49099;28.428;-16.488;2023-01-10T00:26:44;7.97;;;2.17;;
63008;SDS011;49099;28.428;-16.488;2023-01-10T00:29:19;8.40;;;1.80;;
63008;SDS011;49099;28.428;-16.488;2023-01-10T00:31:47;8.20;;;2.10;;
63008;SDS011;49099;28.428;-16.488;2023-01-10T00:34:14;11.18;;;2.03;;
63008;SDS011;49099;28.428;-16.488;2023-01-10T00:36:42;8.52;;;1.85;;
63008;SDS011;49099;28.428;-16.488;2023-01-10T00:39:11;15.15;;;2.00;;
63008;SDS011;49099;28.428;-16.488;2023-01-10T00:41:38;7.72;;;1.73;;
63008;SDS011;49099;28.428;-16.488;2023-01-10T00:44:24;9.18;;;1.60;;
63008;SDS011;49099;28.428;-16.488;2023-01-10T00:46:52;6.47;;;1.80;;
63008;SDS011;49099;28.428;-16.488;2023-01-10T00:49:19;7.50;;;1.90;;
63008;SDS011;49099;28.428;-16.488;2023-01-10T00:51:46;6.03;;;1.50;;
63008;SDS011;49099;28.428;-16.488;2023-01-10T00:54:13;6.88;;;1.38;;
63008;SDS011;49099;28.428;-16.488;2023-01-10T00:56:41;7.43;;;1.60;;
63008;SDS011;49099;28.428;-16.488;2023-01-10T00:59:08;10.48;;;1.80;;
63008;SDS011;49099;28.428;-16.488;2023-01-10T01:01:35;9.57;;;1.85;;
63008;SDS011;49099;28.428;-16.488;2023-01-10T01:04:03;6.88;;;1.85;;
63008;SDS011;49099;28.428;-16.488;2023-01-10T01:06:30;4.75;;;1.48;;
63008;SDS011;49099;28.428;-16.488;2023-01-10T01:08:57;5.53;;;1.50;;
63008;SDS011;49099;28.428;-16.488;2023-01-10T01:11:25;7.68;;;1.90;;
63008;SDS011;49099;28.428;-16.488;2023-01-10T01:13:52;7.30;;;1.80;;
63008;SDS011;49099;28.428;-16.488;2023-01-10T01:16:19;8.45;;;1.85;;
63008;SDS011;49099;28.428;-16.488;2023-01-10T01:18:46;6.03;;;1.67;;
63008;SDS011;49099;28.428;-16.488;2023-01-10T01:21:13;9.07;;;2.17;;
63008;SDS011;49099;28.428;-16.488;2023-01-10T01:23:40;11.52;;;2.10;;
63008;SDS011;49099;28.428;-16.488;2023-01-10T01:26:08;5.13;;;1.75;;
63008;SDS011;49099;28.428;-16.488;2023-01-10T01:28:36;8.02;;;1.83;;
63008;SDS011;49099;28.428;-16.488;2023-01-10T01:31:09;6.85;;;1.73;;
63008;SDS011;49099;28.428;-16.488;2023-01-10T01:33:37;4.50;;;1.42;;
63008;SDS011;49099;28.428;-16.488;2023-01-10T01:36:07;8.82;;;2.00;;
63008;SDS011;49099;28.428;-16.488;2023-01-10T01:38:36;4.30;;;1.58;;
63008;SDS011;49099;28.428;-16.488;2023-01-10T01:41:05;9.45;;;1.85;;
63008;SDS011;49099;28.428;-16.488;2023-01-10T01:46:33;7.20;;;1.85;;
63008;SDS011;49099;28.428;-16.488;2023-01-10T01:49:04;6.93;;;1.65;;
63008;SDS011;49099;28.428;-16.488;2023-01-10T01:51:35;11.43;;;1.90;;
63008;SDS011;49099;28.428;-16.488;2023-01-10T01:54:03;6.28;;;1.75;;
63008;SDS011;49099;28.428;-16.488;2023-01-10T01:57:08;8.02;;;1.77;;
63008;SDS011;49099;28.428;-16.488;2023-01-10T01:59:35;9.43;;;1.88;;
63008;SDS011;49099;28.428;-16.488;2023-01-10T02:02:07;8.13;;;1.95;;
63008;SDS011;49099;28.428;-16.488;2023-01-10T02:04:48;6.90;;;1.67;;
63008;SDS011;49099;28.428;-16.488;2023-01-10T02:07:23;8.73;;;1.88;;
63008;SDS011;49099;28.428;-16.488;2023-01-10T02:09:53;8.88;;;1.73;;
63008;SDS011;49099;28.428;-16.488;2023-01-10T02:12:24;8.77;;;1.88;;
63008;SDS011;49099;28.428;-16.488;2023-01-10T02:14:53;10.45;;;1.75;;
63008;SDS011;49099;28.428;-16.488;2023-01-10T02:17:21;6.43;;;1.58;;
63008;SDS011;49099;28.428;-16.488;2023-01-10T02:28:38;6.53;;;1.50;;
63008;SDS011;49099;28.428;-16.488;2023-01-10T02:42:55;5.25;;;1.48;;
63008;SDS011;49099;28.428;-16.488;2023-01-10T02:45:27;5.95;;;1.50;;
63008;SDS011;49099;28.428;-16.488;2023-01-10T02:47:59;9.30;;;1.58;;
63008;SDS011;49099;28.428;-16.488;2023-01-10T03:01:03;8.23;;;1.83;;
63008;SDS011;49099;28.428;-16.488;2023-01-10T03:03:46;5.03;;;1.27;;
63008;SDS011;49099;28.428;-16.488;2023-01-10T03:06:41;3.42;;;1.30;;
63008;SDS011;49099;28.428;-16.488;2023-01-10T03:11:57;5.88;;;1.38;;
63008;SDS011;49099;28.428;-16.488;2023-01-10T03:14:33;6.18;;;1.50;;
63008;SDS011;49099;28.428;-16.488;2023-01-10T03:17:06;6.03;;;1.50;;
63008;SDS011;49099;28.428;-16.488;2023-01-10T03:19:41;5.93;;;1.30;;
63008;SDS011;49099;28.428;-16.488;2023-01-10T03:22:12;5.80;;;1.45;;
63008;SDS011;49099;28.428;-16.488;2023-01-10T03:24:41;5.07;;;1.40;;
63008;SDS011;49099;28.428;-16.488;2023-01-10T03:27:24;7.68;;;1.65;;
63008;SDS011;49099;28.428;-16.488;2023-01-10T03:29:59;6.68;;;1.40;;
63008;SDS011;49099;28.428;-16.488;2023-01-10T03:32:34;6.00;;;1.38;;
63008;SDS011;49099;28.428;-16.488;2023-01-10T03:35:01;7.75;;;1.40;;
63008;SDS011;49099;28.428;-16.488;2023-01-10T03:40:17;4.20;;;1.33;;
63008;SDS011;49099;28.428;-16.488;2023-01-10T03:48:38;4.07;;;1.33;;
63008;SDS011;49099;28.428;-16.488;2023-01-10T03:51:10;9.45;;;1.38;;
63008;SDS011;49099;28.428;-16.488;2023-01-10T03:53:38;5.95;;;1.38;;
63008;SDS011;49099;28.428;-16.488;2023-01-10T03:56:06;6.32;;;1.50;;
63008;SDS011;49099;28.428;-16.488;2023-01-10T03:58:33;4.10;;;1.30;;
63008;SDS011;49099;28.428;-16.488;2023-01-10T04:01:00;5.80;;;1.40;;
63008;SDS011;49099;28.428;-16.488;2023-01-10T04:03:28;11.30;;;1.70;;
63008;SDS011;49099;28.428;-16.488;2023-01-10T04:05:55;10.00;;;1.75;;
63008;SDS011;49099;28.428;-16.488;2023-01-10T04:08:22;6.63;;;1.30;;
63008;SDS011;49099;28.428;-16.488;2023-01-10T04:10:49;5.70;;;1.60;;
63008;SDS011;49099;28.428;-16.488;2023-01-10T04:13:16;4.55;;;1.27;;
63008;SDS011;49099;28.428;-16.488;2023-01-10T04:15:43;6.72;;;1.40;;
63008;SDS011;49099;28.428;-16.488;2023-01-10T04:18:11;6.72;;;1.30;;
63008;SDS011;49099;28.428;-16.488;2023-01-10T04:20:41;9.57;;;1.65;;
63008;SDS011;49099;28.428;-16.488;2023-01-10T04:23:09;4.50;;;1.15;;
63008;SDS011;49099;28.428;-16.488;2023-01-10T04:25:36;4.65;;;1.50;;
63008;SDS011;49099;28.428;-16.488;2023-01-10T04:28:03;6.07;;;1.58;;
63008;SDS011;49099;28.428;-16.488;2023-01-10T04:30:30;4.10;;;1.30;;
63008;SDS011;49099;28.428;-16.488;2023-01-10T04:32:57;7.95;;;1.58;;
63008;SDS011;49099;28.428;-16.488;2023-01-10T04:35:24;7.05;;;1.50;;
63008;SDS011;49099;28.428;-16.488;2023-01-10T04:37:52;6.63;;;1.50;;
63008;SDS011;49099;28.428;-16.488;2023-01-10T04:40:19;6.55;;;1.40;;
63008;SDS011;49099;28.428;-16.488;2023-01-10T04:42:49;3.97;;;1.17;;
63008;SDS011;49099;28.428;-16.488;2023-01-10T04:45:16;5.03;;;1.58;;
63008;SDS011;49099;28.428;-16.488;2023-01-10T04:47:49;5.35;;;1.20;;
63008;SDS011;49099;28.428;-16.488;2023-01-10T04:50:17;4.28;;;1.30;;
63008;SDS011;49099;28.428;-16.488;2023-01-10T04:52:44;5.70;;;1.20;;
63008;SDS011;49099;28.428;-16.488;2023-01-10T04:55:11;7.03;;;1.58;;
63008;SDS011;49099;28.428;-16.488;2023-01-10T04:57:39;7.65;;;1.60;;
63008;SDS011;49099;28.428;-16.488;2023-01-10T05:00:06;5.40;;;1.20;;
63008;SDS011;49099;28.428;-16.488;2023-01-10T05:02:35;6.18;;;1.33;;
63008;SDS011;49099;28.428;-16.488;2023-01-10T05:05:11;5.53;;;1.83;;
63008;SDS011;49099;28.428;-16.488;2023-01-10T05:07:39;5.85;;;1.30;;
63008;SDS011;49099;28.428;-16.488;2023-01-10T05:10:07;3.50;;;1.20;;
63008;SDS011;49099;28.428;-16.488;2023-01-10T05:12:35;5.28;;;1.50;;
63008;SDS011;49099;28.428;-16.488;2023-01-10T05:15:02;5.72;;;1.30;;
63008;SDS011;49099;28.428;-16.488;2023-01-10T05:17:30;6.60;;;1.70;;
63008;SDS011;49099;28.428;-16.488;2023-01-10T05:19:57;6.93;;;1.42;;
63008;SDS011;49099;28.428;-16.488;2023-01-10T05:22:24;5.45;;;1.40;;
63008;SDS011;49099;28.428;-16.488;2023-01-10T05:24:51;4.32;;;1.30;;
63008;SDS011;49099;28.428;-16.488;2023-01-10T05:27:20;5.18;;;1.42;;
63008;SDS011;49099;28.428;-16.488;2023-01-10T05:29:47;7.60;;;1.90;;
63008;SDS011;49099;28.428;-16.488;2023-01-10T05:32:14;6.13;;;1.50;;
63008;SDS011;49099;28.428;-16.488;2023-01-10T05:34:42;5.93;;;1.45;;
63008;SDS011;49099;28.428;-16.488;2023-01-10T05:37:09;7.35;;;1.48;;
63008;SDS011;49099;28.428;-16.488;2023-01-10T05:39:36;6.28;;;1.40;;
63008;SDS011;49099;28.428;-16.488;2023-01-10T05:42:05;3.75;;;1.48;;
63008;SDS011;49099;28.428;-16.488;2023-01-10T05:44:32;8.10;;;2.00;;
63008;SDS011;49099;28.428;-16.488;2023-01-10T05:47:00;6.68;;;1.60;;
63008;SDS011;49099;28.428;-16.488;2023-01-10T05:49:27;5.75;;;1.30;;
63008;SDS011;49099;28.428;-16.488;2023-01-10T05:51:54;8.82;;;1.80;;
63008;SDS011;49099;28.428;-16.488;2023-01-10T05:54:21;6.28;;;1.50;;
63008;SDS011;49099;28.428;-16.488;2023-01-10T05:56:48;4.90;;;1.20;;
63008;SDS011;49099;28.428;-16.488;2023-01-10T05:59:16;7.00;;;1.30;;
63008;SDS011;49099;28.428;-16.488;2023-01-10T06:01:53;9.88;;;1.98;;
63008;SDS011;49099;28.428;-16.488;2023-01-10T06:04:21;6.18;;;1.30;;
63008;SDS011;49099;28.428;-16.488;2023-01-10T06:06:48;8.68;;;1.67;;
63008;SDS011;49099;28.428;-16.488;2023-01-10T06:09:15;7.68;;;1.55;;
63008;SDS011;49099;28.428;-16.488;2023-01-10T06:11:42;4.72;;;1.40;;
63008;SDS011;49099;28.428;-16.488;2023-01-10T06:14:09;4.38;;;1.50;;
63008;SDS011;49099;28.428;-16.488;2023-01-10T06:16:37;5.85;;;1.40;;
63008;SDS011;49099;28.428;-16.488;2023-01-10T06:19:04;8.20;;;1.75;;
63008;SDS011;49099;28.428;-16.488;2023-01-10T06:21:31;8.15;;;1.65;;
63008;SDS011;49099;28.428;-16.488;2023-01-10T06:23:58;4.18;;;1.58;;
63008;SDS011;49099;28.428;-16.488;2023-01-10T06:26:25;5.13;;;1.23;;
63008;SDS011;49099;28.428;-16.488;2023-01-10T06:28:53;3.22;;;1.17;;
63008;SDS011;49099;28.428;-16.488;2023-01-10T06:31:20;5.35;;;1.27;;
63008;SDS011;49099;28.428;-16.488;2023-01-10T06:33:51;7.80;;;1.30;;
63008;SDS011;49099;28.428;-16.488;2023-01-10T06:36:18;6.57;;;1.40;;
63008;SDS011;49099;28.428;-16.488;2023-01-10T06:38:46;5.72;;;1.45;;
63008;SDS011;49099;28.428;-16.488;2023-01-10T06:41:13;5.22;;;1.60;;
63008;SDS011;49099;28.428;-16.488;2023-01-10T06:43:41;4.82;;;1.30;;
63008;SDS011;49099;28.428;-16.488;2023-01-10T06:46:14;4.20;;;1.20;;
63008;SDS011;49099;28.428;-16.488;2023-01-10T06:48:43;4.45;;;1.40;;
63008;SDS011;49099;28.428;-16.488;2023-01-10T06:51:12;8.18;;;1.25;;
63008;SDS011;49099;28.428;-16.488;2023-01-10T06:53:40;6.65;;;1.42;;
63008;SDS011;49099;28.428;-16.488;2023-01-10T06:56:08;6.65;;;1.50;;
63008;SDS011;49099;28.428;-16.488;2023-01-10T06:58:36;6.70;;;1.50;;
63008;SDS011;49099;28.428;-16.488;2023-01-10T07:01:05;6.38;;;1.65;;
63008;SDS011;49099;28.428;-16.488;2023-01-10T07:03:33;5.20;;;1.30;;
63008;SDS011;49099;28.428;-16.488;2023-01-10T07:06:01;4.13;;;1.30;;
63008;SDS011;49099;28.428;-16.488;2023-01-10T07:08:29;5.18;;;1.42;;
63008;SDS011;49099;28.428;-16.488;2023-01-10T07:10:56;4.18;;;1.45;;
63008;SDS011;49099;28.428;-16.488;2023-01-10T07:13:24;4.90;;;1.45;;
63008;SDS011;49099;28.428;-16.488;2023-01-10T07:15:52;6.07;;;1.50;;
63008;SDS011;49099;28.428;-16.488;2023-01-10T07:18:27;4.65;;;1.30;;
63008;SDS011;49099;28.428;-16.488;2023-01-10T07:20:54;4.53;;;1.10;;
63008;SDS011;49099;28.428;-16.488;2023-01-10T07:23:21;4.45;;;1.40;;
63008;SDS011;49099;28.428;-16.488;2023-01-10T07:25:48;5.13;;;1.20;;
63008;SDS011;49099;28.428;-16.488;2023-01-10T07:28:16;4.95;;;1.40;;
63008;SDS011;49099;28.428;-16.488;2023-01-10T07:30:43;4.72;;;1.45;;
63008;SDS011;49099;28.428;-16.488;2023-01-10T07:33:10;4.95;;;1.30;;
63008;SDS011;49099;28.428;-16.488;2023-01-10T07:35:37;2.22;;;1.20;;
63008;SDS011;49099;28.428;-16.488;2023-01-10T07:38:05;4.47;;;1.20;;
63008;SDS011;49099;28.428;-16.488;2023-01-10T07:40:32;4.32;;;1.30;;
63008;SDS011;49099;28.428;-16.488;2023-01-10T07:42:59;2.30;;;1.00;;
63008;SDS011;49099;28.428;-16.488;2023-01-10T07:45:28;6.22;;;1.10;;
63008;SDS011;49099;28.428;-16.488;2023-01-10T07:48:00;4.28;;;0.93;;
63008;SDS011;49099;28.428;-16.488;2023-01-10T07:50:30;5.25;;;1.67;;
63008;SDS011;49099;28.428;-16.488;2023-01-10T07:53:00;6.55;;;1.20;;
63008;SDS011;49099;28.428;-16.488;2023-01-10T07:55:29;6.93;;;1.25;;
63008;SDS011;49099;28.428;-16.488;2023-01-10T07:57:56;7.07;;;1.40;;
63008;SDS011;49099;28.428;-16.488;2023-01-10T08:00:24;5.13;;;1.20;;
63008;SDS011;49099;28.428;-16.488;2023-01-10T08:02:52;4.25;;;1.38;;
63008;SDS011;49099;28.428;-16.488;2023-01-10T08:05:21;5.57;;;1.40;;
63008;SDS011;49099;28.428;-16.488;2023-01-10T08:07:49;3.55;;;1.25;;
63008;SDS011;49099;28.428;-16.488;2023-01-10T08:10:16;2.80;;;1.10;;
63008;SDS011;49099;28.428;-16.488;2023-01-10T08:12:43;3.63;;;1.20;;
63008;SDS011;49099;28.428;-16.488;2023-01-10T08:15:11;5.32;;;1.35;;
63008;SDS011;49099;28.428;-16.488;2023-01-10T08:17:39;3.90;;;1.20;;
63008;SDS011;49099;28.428;-16.488;2023-01-10T08:20:06;4.80;;;1.42;;
63008;SDS011;49099;28.428;-16.488;2023-01-10T08:22:34;3.88;;;1.20;;
63008;SDS011;49099;28.428;-16.488;2023-01-10T08:25:01;8.80;;;1.40;;
63008;SDS011;49099;28.428;-16.488;2023-01-10T08:27:28;5.00;;;1.17;;
63008;SDS011;49099;28.428;-16.488;2023-01-10T08:29:55;5.18;;;1.30;;
63008;SDS011;49099;28.428;-16.488;2023-01-10T08:32:22;5.65;;;1.30;;
63008;SDS011;49099;28.428;-16.488;2023-01-10T08:34:49;8.27;;;1.33;;
63008;SDS011;49099;28.428;-16.488;2023-01-10T08:37:16;7.15;;;1.50;;
63008;SDS011;49099;28.428;-16.488;2023-01-10T08:39:43;7.22;;;1.48;;
63008;SDS011;49099;28.428;-16.488;2023-01-10T08:42:11;5.22;;;1.70;;
63008;SDS011;49099;28.428;-16.488;2023-01-10T08:44:38;6.40;;;1.70;;
63008;SDS011;49099;28.428;-16.488;2023-01-10T08:47:05;4.03;;;1.25;;
63008;SDS011;49099;28.428;-16.488;2023-01-10T08:49:32;6.75;;;1.70;;
63008;SDS011;49099;28.428;-16.488;2023-01-10T08:52:00;6.25;;;1.67;;
63008;SDS011;49099;28.428;-16.488;2023-01-10T08:54:28;5.20;;;1.50;;
63008;SDS011;49099;28.428;-16.488;2023-01-10T08:56:55;6.45;;;1.67;;
63008;SDS011;49099;28.428;-16.488;2023-01-10T08:59:22;5.35;;;1.48;;
63008;SDS011;49099;28.428;-16.488;2023-01-10T09:01:49;5.05;;;1.50;;
63008;SDS011;49099;28.428;-16.488;2023-01-10T09:04:17;9.02;;;2.10;;
63008;SDS011;49099;28.428;-16.488;2023-01-10T09:06:44;6.18;;;1.35;;
63008;SDS011;49099;28.428;-16.488;2023-01-10T09:09:11;5.00;;;1.52;;
63008;SDS011;49099;28.428;-16.488;2023-01-10T09:11:38;4.57;;;1.60;;
63008;SDS011;49099;28.428;-16.488;2023-01-10T09:14:07;6.07;;;1.35;;
63008;SDS011;49099;28.428;-16.488;2023-01-10T09:16:34;4.47;;;1.40;;
63008;SDS011;49099;28.428;-16.488;2023-01-10T09:19:01;2.20;;;1.15;;
63008;SDS011;49099;28.428;-16.488;2023-01-10T09:21:29;6.40;;;1.90;;
63008;SDS011;49099;28.428;-16.488;2023-01-10T09:23:56;4.20;;;1.40;;
63008;SDS011;49099;28.428;-16.488;2023-01-10T09:26:23;3.92;;;1.10;;
63008;SDS011;49099;28.428;-16.488;2023-01-10T09:28:51;5.13;;;1.40;;
63008;SDS011;49099;28.428;-16.488;2023-01-10T09:31:18;6.07;;;1.52;;
63008;SDS011;49099;28.428;-16.488;2023-01-10T09:33:45;6.00;;;1.50;;
63008;SDS011;49099;28.428;-16.488;2023-01-10T09:36:15;7.40;;;1.30;;
63008;SDS011;49099;28.428;-16.488;2023-01-10T09:38:42;6.07;;;1.63;;
63008;SDS011;49099;28.428;-16.488;2023-01-10T09:49:14;3.45;;;1.10;;
63008;SDS011;49099;28.428;-16.488;2023-01-10T09:51:45;6.28;;;1.50;;
63008;SDS011;49099;28.428;-16.488;2023-01-10T09:54:26;5.25;;;1.63;;
63008;SDS011;49099;28.428;-16.488;2023-01-10T09:56:54;8.23;;;1.30;;
63008;SDS011;49099;28.428;-16.488;2023-01-10T09:59:27;4.97;;;1.38;;
63008;SDS011;49099;28.428;-16.488;2023-01-10T10:07:54;3.58;;;1.35;;
63008;SDS011;49099;28.428;-16.488;2023-01-10T10:10:24;3.50;;;1.27;;
63008;SDS011;49099;28.428;-16.488;2023-01-10T10:26:09;5.13;;;1.40;;
63008;SDS011;49099;28.428;-16.488;2023-01-10T10:31:48;5.40;;;1.60;;
63008;SDS011;49099;28.428;-16.488;2023-01-10T10:34:43;7.05;;;1.50;;
63008;SDS011;49099;28.428;-16.488;2023-01-10T10:37:24;7.80;;;2.10;;
63008;SDS011;49099;28.428;-16.488;2023-01-10T10:39:57;6.83;;;1.63;;
63008;SDS011;49099;28.428;-16.488;2023-01-10T10:42:32;5.00;;;1.70;;
63008;SDS011;49099;28.428;-16.488;2023-01-10T10:47:33;5.25;;;1.80;;
63008;SDS011;49099;28.428;-16.488;2023-01-10T10:52:42;6.30;;;1.42;;
63008;SDS011;49099;28.428;-16.488;2023-01-10T10:55:17;7.60;;;1.60;;
63008;SDS011;49099;28.428;-16.488;2023-01-10T10:57:49;8.95;;;1.45;;
63008;SDS011;49099;28.428;-16.488;2023-01-10T11:00:25;9.10;;;1.40;;
63008;SDS011;49099;28.428;-16.488;2023-01-10T11:02:57;6.53;;;1.50;;
63008;SDS011;49099;28.428;-16.488;2023-01-10T11:05:34;5.20;;;1.50;;
63008;SDS011;49099;28.428;-16.488;2023-01-10T11:08:05;10.32;;;2.15;;
63008;SDS011;49099;28.428;-16.488;2023-01-10T11:10:42;59.30;;;9.27;;
63008;SDS011;49099;28.428;-16.488;2023-01-10T11:13:20;39.10;;;8.20;;
63008;SDS011;49099;28.428;-16.488;2023-01-10T11:16:01;19.02;;;4.35;;
63008;SDS011;49099;28.428;-16.488;2023-01-10T11:18:31;21.17;;;4.63;;
63008;SDS011;49099;28.428;-16.488;2023-01-10T11:21:05;34.63;;;6.13;;
63008;SDS011;49099;28.428;-16.488;2023-01-10T11:29:05;37.67;;;7.63;;
63008;SDS011;49099;28.428;-16.488;2023-01-10T11:31:35;48.65;;;8.38;;
63008;SDS011;49099;28.428;-16.488;2023-01-10T11:34:04;40.95;;;7.88;;
63008;SDS011;49099;28.428;-16.488;2023-01-10T11:36:51;44.33;;;7.43;;
63008;SDS011;49099;28.428;-16.488;2023-01-10T11:39:20;27.45;;;4.80;;
63008;SDS011;49099;28.428;-16.488;2023-01-10T11:41:47;19.55;;;4.95;;
63008;SDS011;49099;28.428;-16.488;2023-01-10T11:44:24;23.92;;;5.20;;
63008;SDS011;49099;28.428;-16.488;2023-01-10T11:46:57;19.83;;;4.45;;
63008;SDS011;49099;28.428;-16.488;2023-01-10T11:49:35;33.08;;;5.93;;
63008;SDS011;49099;28.428;-16.488;2023-01-10T11:54:52;24.30;;;4.18;;
63008;SDS011;49099;28.428;-16.488;2023-01-10T11:57:26;13.85;;;2.30;;
63008;SDS011;49099;28.428;-16.488;2023-01-10T11:59:59;11.07;;;2.50;;
63008;SDS011;49099;28.428;-16.488;2023-01-10T12:02:40;9.02;;;2.38;;
63008;SDS011;49099;28.428;-16.488;2023-01-10T12:05:17;12.93;;;2.85;;
63008;SDS011;49099;28.428;-16.488;2023-01-10T12:08:21;23.55;;;4.57;;
63008;SDS011;49099;28.428;-16.488;2023-01-10T12:11:00;21.75;;;4.22;;
63008;SDS011;49099;28.428;-16.488;2023-01-10T12:13:41;27.88;;;5.05;;
63008;SDS011;49099;28.428;-16.488;2023-01-10T12:16:17;22.15;;;5.13;;
63008;SDS011;49099;28.428;-16.488;2023-01-10T12:18:50;23.30;;;4.75;;
63008;SDS011;49099;28.428;-16.488;2023-01-10T12:21:22;19.88;;;3.92;;
63008;SDS011;49099;28.428;-16.488;2023-01-10T12:26:24;17.15;;;3.83;;
63008;SDS011;49099;28.428;-16.488;2023-01-10T12:28:56;15.18;;;3.03;;
63008;SDS011;49099;28.428;-16.488;2023-01-10T12:31:25;13.65;;;3.53;;
63008;SDS011;49099;28.428;-16.488;2023-01-10T12:34:01;20.13;;;3.38;;
63008;SDS011;49099;28.428;-16.488;2023-01-10T12:39:13;26.52;;;4.72;;
63008;SDS011;49099;28.428;-16.488;2023-01-10T12:44:58;26.27;;;4.03;;
63008;SDS011;49099;28.428;-16.488;2023-01-10T12:50:42;30.40;;;4.97;;
63008;SDS011;49099;28.428;-16.488;2023-01-10T12:56:03;44.05;;;8.18;;
63008;SDS011;49099;28.428;-16.488;2023-01-10T13:01:12;74.88;;;12.63;;
63008;SDS011;49099;28.428;-16.488;2023-01-10T13:03:42;39.70;;;8.38;;
63008;SDS011;49099;28.428;-16.488;2023-01-10T13:06:22;56.63;;;9.32;;
63008;SDS011;49099;28.428;-16.488;2023-01-10T13:11:24;60.42;;;9.52;;
63008;SDS011;49099;28.428;-16.488;2023-01-10T13:13:59;38.70;;;7.50;;
63008;SDS011;49099;28.428;-16.488;2023-01-10T13:16:35;50.60;;;8.93;;
63008;SDS011;49099;28.428;-16.488;2023-01-10T13:19:23;38.55;;;6.28;;
63008;SDS011;49099;28.428;-16.488;2023-01-10T13:22:11;25.88;;;6.10;;
63008;SDS011;49099;28.428;-16.488;2023-01-10T13:24:57;31.15;;;4.65;;
63008;SDS011;49099;28.428;-16.488;2023-01-10T13:27:29;25.50;;;4.57;;
63008;SDS011;49099;28.428;-16.488;2023-01-10T13:29:58;30.33;;;5.97;;
63008;SDS011;49099;28.428;-16.488;2023-01-10T13:32:27;24.63;;;4.13;;
63008;SDS011;49099;28.428;-16.488;2023-01-10T13:35:10;27.67;;;4.32;;
63008;SDS011;49099;28.428;-16.488;2023-01-10T13:37:40;19.27;;;3.90;;
63008;SDS011;49099;28.428;-16.488;2023-01-10T13:40:18;18.63;;;3.17;;
63008;SDS011;49099;28.428;-16.488;2023-01-10T13:43:23;20.35;;;3.78;;
63008;SDS011;49099;28.428;-16.488;2023-01-10T13:56:27;23.63;;;4.40;;
63008;SDS011;49099;28.428;-16.488;2023-01-10T13:59:03;11.15;;;2.70;;
63008;SDS011;49099;28.428;-16.488;2023-01-10T14:01:56;12.35;;;2.50;;
63008;SDS011;49099;28.428;-16.488;2023-01-10T14:04:53;17.05;;;3.05;;
63008;SDS011;49099;28.428;-16.488;2023-01-10T14:07:33;10.25;;;2.33;;
63008;SDS011;49099;28.428;-16.488;2023-01-10T14:10:25;14.35;;;2.55;;
63008;SDS011;49099;28.428;-16.488;2023-01-10T14:13:03;13.10;;;2.83;;
63008;SDS011;49099;28.428;-16.488;2023-01-10T14:15:42;16.05;;;3.50;;
63008;SDS011;49099;28.428;-16.488;2023-01-10T14:18:19;18.88;;;3.40;;
63008;SDS011;49099;28.428;-16.488;2023-01-10T14:20:58;18.58;;;3.40;;
63008;SDS011;49099;28.428;-16.488;2023-01-10T14:23:49;10.45;;;2.83;;
63008;SDS011;49099;28.428;-16.488;2023-01-10T14:28:54;16.30;;;3.28;;
63008;SDS011;49099;28.428;-16.488;2023-01-10T14:31:22;20.50;;;3.67;;
63008;SDS011;49099;28.428;-16.488;2023-01-10T14:33:51;22.33;;;3.50;;
63008;SDS011;49099;28.428;-16.488;2023-01-10T14:38:57;22.67;;;4.50;;
63008;SDS011;49099;28.428;-16.488;2023-01-10T14:41:30;21.00;;;4.20;;
63008;SDS011;49099;28.428;-16.488;2023-01-10T14:44:07;24.45;;;4.05;;
63008;SDS011;49099;28.428;-16.488;2023-01-10T14:46:46;29.38;;;5.15;;
63008;SDS011;49099;28.428;-16.488;2023-01-10T14:49:19;17.55;;;3.83;;
63008;SDS011;49099;28.428;-16.488;2023-01-10T14:51:46;18.27;;;4.10;;
63008;SDS011;49099;28.428;-16.488;2023-01-10T14:54:20;15.48;;;3.00;;
63008;SDS011;49099;28.428;-16.488;2023-01-10T14:56:50;10.82;;;2.47;;
63008;SDS011;49099;28.428;-16.488;2023-01-10T14:59:29;8.82;;;2.20;;
63008;SDS011;49099;28.428;-16.488;2023-01-10T15:04:29;24.98;;;5.00;;
63008;SDS011;49099;28.428;-16.488;2023-01-10T15:07:08;18.33;;;3.60;;
63008;SDS011;49099;28.428;-16.488;2023-01-10T15:09:37;21.67;;;4.38;;
63008;SDS011;49099;28.428;-16.488;2023-01-10T15:12:06;17.45;;;3.38;;
63008;SDS011;49099;28.428;-16.488;2023-01-10T15:14:37;16.30;;;3.70;;
63008;SDS011;49099;28.428;-16.488;2023-01-10T15:17:05;25.45;;;5.07;;
63008;SDS011;49099;28.428;-16.488;2023-01-10T15:19:35;25.08;;;3.75;;
63008;SDS011;49099;28.428;-16.488;2023-01-10T15:22:15;26.60;;;5.32;;
63008;SDS011;49099;28.428;-16.488;2023-01-10T15:24:58;18.73;;;3.90;;
63008;SDS011;49099;28.428;-16.488;2023-01-10T15:27:27;36.55;;;6.38;;
63008;SDS011;49099;28.428;-16.488;2023-01-10T15:29:55;26.20;;;4.93;;
63008;SDS011;49099;28.428;-16.488;2023-01-10T15:32:26;13.88;;;3.17;;
63008;SDS011;49099;28.428;-16.488;2023-01-10T15:34:54;11.80;;;2.80;;
63008;SDS011;49099;28.428;-16.488;2023-01-10T15:37:24;18.10;;;3.60;;
63008;SDS011;49099;28.428;-16.488;2023-01-10T15:39:53;12.82;;;2.55;;
63008;SDS011;49099;28.428;-16.488;2023-01-10T15:42:21;16.08;;;3.15;;
63008;SDS011;49099;28.428;-16.488;2023-01-10T15:44:49;11.02;;;2.47;;
63008;SDS011;49099;28.428;-16.488;2023-01-10T15:47:37;15.97;;;3.10;;
63008;SDS011;49099;28.428;-16.488;2023-01-10T15:52:48;26.90;;;4.05;;
63008;SDS011;49099;28.428;-16.488;2023-01-10T16:01:00;16.67;;;2.80;;
63008;SDS011;49099;28.428;-16.488;2023-01-10T16:03:32;15.27;;;3.13;;
63008;SDS011;49099;28.428;-16.488;2023-01-10T16:06:01;28.65;;;4.00;;
63008;SDS011;49099;28.428;-16.488;2023-01-10T16:08:36;29.90;;;4.57;;
63008;SDS011;49099;28.428;-16.488;2023-01-10T16:11:05;26.20;;;5.85;;
63008;SDS011;49099;28.428;-16.488;2023-01-10T16:13:34;25.90;;;4.70;;
63008;SDS011;49099;28.428;-16.488;2023-01-10T16:16:04;21.50;;;4.78;;
63008;SDS011;49099;28.428;-16.488;2023-01-10T16:18:41;31.42;;;5.30;;
63008;SDS011;49099;28.428;-16.488;2023-01-10T16:21:09;20.63;;;4.30;;
63008;SDS011;49099;28.428;-16.488;2023-01-10T16:23:37;24.73;;;5.35;;
63008;SDS011;49099;28.428;-16.488;2023-01-10T16:26:09;37.28;;;6.93;;
63008;SDS011;49099;28.428;-16.488;2023-01-10T16:28:36;20.25;;;4.60;;
63008;SDS011;49099;28.428;-16.488;2023-01-10T16:31:04;26.30;;;5.00;;
63008;SDS011;49099;28.428;-16.488;2023-01-10T16:33:36;31.38;;;5.20;;
63008;SDS011;49099;28.428;-16.488;2023-01-10T16:36:03;28.75;;;5.28;;
63008;SDS011;49099;28.428;-16.488;2023-01-10T16:38:46;32.72;;;5.63;;
63008;SDS011;49099;28.428;-16.488;2023-01-10T16:41:14;24.45;;;3.75;;
63008;SDS011;49099;28.428;-16.488;2023-01-10T16:44:00;27.90;;;4.30;;
63008;SDS011;49099;28.428;-16.488;2023-01-10T16:46:27;34.88;;;5.78;;
63008;SDS011;49099;28.428;-16.488;2023-01-10T16:48:55;16.88;;;4.30;;
63008;SDS011;49099;28.428;-16.488;2023-01-10T16:51:23;18.35;;;3.80;;
63008;SDS011;49099;28.428;-16.488;2023-01-10T16:53:53;17.15;;;3.92;;